Time,TemperatureF,DewpointF,PressureIn,WindDirection,WindDirectionDegrees,WindSpeedMPH,WindSpeedGustMPH,Humidity,HourlyPrecipIn,Conditions,Clouds,dailyrainin,SoftwareType,DateUTC
2013-07-10 00:12:00,82.0,-99.9,-100.00,SSE,158,0.0,0.0,-999,0.00,,,0.00,,2013-07-10 05:12:00,
2013-07-10 00:22:00,82.0,-99.9,-100.00,SSE,158,0.0,0.0,-999,0.00,,,0.00,,2013-07-10 05:22:00,
2013-07-10 01:11:00,81.0,-99.9,-100.00,SE,141,1.0,2.0,-999,0.00,,,0.00,,2013-07-10 06:11:00,
2013-07-10 01:22:00,81.0,-99.9,-100.00,SE,141,1.0,2.0,-999,0.00,,,0.00,,2013-07-10 06:22:00,
2013-07-10 01:42:00,81.0,-99.9,-100.00,SSE,152,0.0,1.0,-999,0.00,,,0.00,,2013-07-10 06:42:00,
2013-07-10 01:52:00,81.0,-99.9,-100.00,SSE,152,0.0,1.0,-999,0.00,,,0.00,,2013-07-10 06:52:00,
2013-07-10 02:12:00,82.0,-99.9,-100.00,SE,140,0.0,3.0,-999,0.00,,,0.00,,2013-07-10 07:12:00,
2013-07-10 02:22:00,82.0,-99.9,-100.00,SE,140,0.0,3.0,-999,0.00,,,0.00,,2013-07-10 07:22:00,
2013-07-10 02:30:00,81.0,-99.9,-100.00,South,171,0.0,0.0,-999,0.00,,,0.00,,2013-07-10 07:30:00,
2013-07-10 02:43:00,82.0,-99.9,-100.00,South,173,1.0,1.0,-999,0.00,,,0.00,,2013-07-10 07:43:00,
2013-07-10 02:53:00,82.0,-99.9,-100.00,South,173,1.0,1.0,-999,0.00,,,0.00,,2013-07-10 07:53:00,
2013-07-10 03:12:00,81.0,-99.9,-100.00,South,171,0.0,0.0,-999,0.00,,,0.00,,2013-07-10 08:12:00,
2013-07-10 03:23:00,81.0,-99.9,-100.00,South,171,0.0,0.0,-999,0.00,,,0.00,,2013-07-10 08:23:00,
2013-07-10 04:02:00,81.0,-99.9,-100.00,South,182,0.0,1.0,-999,0.00,,,0.00,,2013-07-10 09:02:00,
2013-07-10 04:12:00,81.0,-99.9,-100.00,South,182,0.0,1.0,-999,0.00,,,0.00,,2013-07-10 09:12:00,
2013-07-10 04:22:00,81.0,-99.9,-100.00,South,182,0.0,1.0,-999,0.00,,,0.00,,2013-07-10 09:22:00,
2013-07-10 04:43:00,80.0,-99.9,-100.00,SSE,168,0.0,1.0,-999,0.00,,,0.00,,2013-07-10 09:43:00,
2013-07-10 04:53:00,80.0,-99.9,-100.00,SSE,168,0.0,1.0,-999,0.00,,,0.00,,2013-07-10 09:53:00,
2013-07-10 05:00:00,-999.0,-99.9,-100.00,SE,137,0.0,1.0,-999,-99.99,,,-99.99,,2013-07-10 10:00:00,
2013-07-10 05:13:00,80.0,-99.9,-100.00,ESE,118,0.0,0.0,-999,0.00,,,0.00,,2013-07-10 10:13:00,
2013-07-10 05:23:00,80.0,-99.9,-100.00,ESE,118,0.0,0.0,-999,0.00,,,0.00,,2013-07-10 10:23:00,
2013-07-10 05:30:00,79.0,-99.9,-100.00,SSE,168,0.0,0.0,-999,0.00,,,0.00,,2013-07-10 10:30:00,
2013-07-10 05:51:00,-999.0,-99.9,-100.00,SE,137,0.0,1.0,-999,-99.99,,,-99.99,,2013-07-10 10:51:00,
2013-07-10 06:12:00,79.0,-99.9,-100.00,SSE,168,0.0,0.0,-999,0.00,,,0.00,,2013-07-10 11:12:00,
2013-07-10 06:23:00,79.0,-99.9,-100.00,SSE,168,0.0,0.0,-999,0.00,,,0.00,,2013-07-10 11:23:00,
2013-07-10 07:11:00,79.0,-99.9,-100.00,South,174,0.0,0.0,-999,0.00,,,0.00,,2013-07-10 12:11:00,
2013-07-10 07:22:00,79.0,-99.9,-100.00,South,174,0.0,0.0,-999,0.00,,,0.00,,2013-07-10 12:22:00,
2013-07-10 07:43:00,80.0,-99.9,-100.00,South,169,0.0,1.0,-999,0.00,,,0.00,,2013-07-10 12:43:00,
2013-07-10 07:53:00,80.0,-99.9,-100.00,South,169,0.0,1.0,-999,0.00,,,0.00,,2013-07-10 12:53:00,
2013-07-10 08:12:00,81.0,-99.9,-100.00,NW,308,2.0,3.0,-999,0.00,,,0.00,,2013-07-10 13:12:00,
2013-07-10 08:22:00,81.0,-99.9,-100.00,NW,308,2.0,3.0,-999,0.00,,,0.00,,2013-07-10 13:22:00,
2013-07-10 08:43:00,78.0,-99.9,-100.00,NE,45,1.0,4.0,-999,0.02,,,0.02,,2013-07-10 13:43:00,
2013-07-10 08:52:00,78.0,-99.9,-100.00,NE,45,1.0,4.0,-999,0.02,,,0.02,,2013-07-10 13:52:00,
2013-07-10 09:02:00,77.0,-99.9,-100.00,ESE,114,2.0,3.0,-999,0.02,,,0.02,,2013-07-10 14:02:00,
2013-07-10 09:12:00,77.0,-99.9,-100.00,ESE,114,2.0,3.0,-999,0.02,,,0.02,,2013-07-10 14:12:00,
2013-07-10 09:22:00,77.0,-99.9,-100.00,ESE,114,2.0,3.0,-999,0.02,,,0.02,,2013-07-10 14:22:00,
2013-07-10 09:44:00,79.0,-99.9,-100.00,NW,306,2.0,6.0,-999,0.00,,,0.02,,2013-07-10 14:44:00,
2013-07-10 09:53:00,79.0,-99.9,-100.00,NW,306,2.0,6.0,-999,0.00,,,0.02,,2013-07-10 14:53:00,
2013-07-10 10:11:00,79.0,-99.9,-100.00,NNE,31,3.0,4.0,-999,0.00,,,0.02,,2013-07-10 15:11:00,
2013-07-10 10:22:00,79.0,-99.9,-100.00,NNE,31,3.0,4.0,-999,0.00,,,0.02,,2013-07-10 15:22:00,
2013-07-10 10:43:00,80.0,-99.9,-100.00,NNE,20,7.0,9.0,-999,0.00,,,0.02,,2013-07-10 15:43:00,
2013-07-10 10:52:00,80.0,-99.9,-100.00,NNE,20,7.0,9.0,-999,0.00,,,0.02,,2013-07-10 15:52:00,
2013-07-10 11:11:00,80.0,-99.9,-100.00,NE,46,5.0,7.0,-999,0.00,,,0.02,,2013-07-10 16:11:00,
2013-07-10 11:23:00,80.0,-99.9,-100.00,NE,46,5.0,7.0,-999,0.00,,,0.02,,2013-07-10 16:23:00,
2013-07-10 11:45:00,80.0,-99.9,-100.00,North,5,6.0,7.0,-999,0.00,,,0.02,,2013-07-10 16:45:00,
2013-07-10 11:53:00,80.0,-99.9,-100.00,North,5,6.0,7.0,-999,0.00,,,0.02,,2013-07-10 16:53:00,
2013-07-10 12:12:00,81.0,-99.9,-100.00,North,357,7.0,8.0,-999,0.00,,,0.02,,2013-07-10 17:12:00,
2013-07-10 12:23:00,81.0,-99.9,-100.00,North,357,7.0,8.0,-999,0.00,,,0.02,,2013-07-10 17:23:00,
2013-07-10 12:43:00,82.0,-99.9,-100.00,North,359,8.0,12.0,-999,0.00,,,0.02,,2013-07-10 17:43:00,
2013-07-10 12:53:00,82.0,-99.9,-100.00,North,359,8.0,12.0,-999,0.00,,,0.02,,2013-07-10 17:53:00,
2013-07-10 13:02:00,82.0,-99.9,-100.00,North,7,8.0,11.0,-999,0.00,,,0.02,,2013-07-10 18:02:00,
2013-07-10 13:11:00,82.0,-99.9,-100.00,North,7,8.0,11.0,-999,0.00,,,0.02,,2013-07-10 18:11:00,
2013-07-10 13:22:00,82.0,-99.9,-100.00,North,7,8.0,11.0,-999,0.00,,,0.02,,2013-07-10 18:22:00,
2013-07-10 13:30:00,84.0,-99.9,-100.00,North,11,7.0,10.0,-999,0.00,,,0.02,,2013-07-10 18:30:00,
2013-07-10 13:44:00,83.0,-99.9,-100.00,NNE,19,6.0,8.0,-999,0.00,,,0.02,,2013-07-10 18:44:00,
2013-07-10 13:53:00,83.0,-99.9,-100.00,NNE,19,6.0,8.0,-999,0.00,,,0.02,,2013-07-10 18:53:00,
2013-07-10 14:11:00,84.0,-99.9,-100.00,North,11,7.0,10.0,-999,0.00,,,0.02,,2013-07-10 19:11:00,
2013-07-10 14:22:00,84.0,-99.9,-100.00,North,11,7.0,10.0,-999,0.00,,,0.02,,2013-07-10 19:22:00,
2013-07-10 14:30:00,84.0,-99.9,-100.00,NNE,13,7.0,10.0,-999,0.00,,,0.02,,2013-07-10 19:30:00,
2013-07-10 14:42:00,84.0,-99.9,-100.00,NNE,12,7.0,11.0,-999,0.00,,,0.02,,2013-07-10 19:42:00,
2013-07-10 14:53:00,84.0,-99.9,-100.00,NNE,12,7.0,11.0,-999,0.00,,,0.02,,2013-07-10 19:53:00,
2013-07-10 15:00:00,85.0,-99.9,-100.00,NNE,15,9.0,13.0,-999,0.00,,,0.02,,2013-07-10 20:00:00,
2013-07-10 15:11:00,84.0,-99.9,-100.00,NNE,13,7.0,10.0,-999,0.00,,,0.02,,2013-07-10 20:11:00,
2013-07-10 15:22:00,84.0,-99.9,-100.00,NNE,13,7.0,10.0,-999,0.00,,,0.02,,2013-07-10 20:22:00,
2013-07-10 15:43:00,85.0,-99.9,-100.00,NNE,15,9.0,13.0,-999,0.00,,,0.02,,2013-07-10 20:43:00,
2013-07-10 15:52:00,85.0,-99.9,-100.00,NNE,15,9.0,13.0,-999,0.00,,,0.02,,2013-07-10 20:52:00,
2013-07-10 18:00:00,85.0,-99.9,-100.00,North,353,11.0,14.0,-999,0.00,,,0.02,,2013-07-10 23:00:00,
2013-07-10 18:11:00,85.0,-99.9,-100.00,North,357,9.0,11.0,-999,-99.99,,,0.02,,2013-07-10 23:11:00,
2013-07-10 18:22:00,85.0,-99.9,-100.00,North,357,9.0,11.0,-999,-99.99,,,0.02,,2013-07-10 23:22:00,
2013-07-10 18:52:00,85.0,-99.9,-100.00,North,353,11.0,14.0,-999,0.00,,,0.02,,2013-07-10 23:52:00,
2013-07-10 19:11:00,84.0,-99.9,-100.00,North,358,12.0,19.0,-999,0.00,,,-99.99,,2013-07-11 00:11:00,
2013-07-10 19:22:00,84.0,-99.9,-100.00,North,358,12.0,19.0,-999,0.00,,,-99.99,,2013-07-11 00:22:00,
2013-07-10 19:43:00,83.0,-99.9,-100.00,NNE,15,12.0,15.0,-999,0.00,,,0.02,,2013-07-11 00:43:00,
2013-07-10 19:52:00,83.0,-99.9,-100.00,NNE,15,12.0,15.0,-999,0.00,,,0.02,,2013-07-11 00:52:00,
2013-07-10 20:11:00,82.0,-99.9,-100.00,North,8,11.0,15.0,-999,0.00,,,0.02,,2013-07-11 01:11:00,
2013-07-10 20:22:00,82.0,-99.9,-100.00,North,8,11.0,15.0,-999,0.00,,,0.02,,2013-07-11 01:22:00,
2013-07-10 20:43:00,81.0,-99.9,-100.00,North,8,11.0,15.0,-999,0.00,,,0.02,,2013-07-11 01:43:00,
2013-07-10 20:52:00,81.0,-99.9,-100.00,North,8,11.0,15.0,-999,0.00,,,0.02,,2013-07-11 01:52:00,
2013-07-10 21:11:00,80.0,-99.9,-100.00,North,6,9.0,10.0,-999,0.00,,,0.02,,2013-07-11 02:11:00,
2013-07-10 21:22:00,80.0,-99.9,-100.00,North,6,9.0,10.0,-999,0.00,,,0.02,,2013-07-11 02:22:00,
2013-07-10 21:44:00,79.0,-99.9,-100.00,North,11,8.0,11.0,-999,0.00,,,0.02,,2013-07-11 02:44:00,
2013-07-10 21:53:00,79.0,-99.9,-100.00,North,11,8.0,11.0,-999,0.00,,,0.02,,2013-07-11 02:53:00,
2013-07-10 22:11:00,78.0,-99.9,-100.00,NNE,15,9.0,11.0,-999,0.00,,,0.02,,2013-07-11 03:11:00,
2013-07-10 22:22:00,78.0,-99.9,-100.00,NNE,15,9.0,11.0,-999,0.00,,,0.02,,2013-07-11 03:22:00,
2013-07-10 22:42:00,77.0,-99.9,-100.00,NNE,20,6.0,8.0,-999,0.00,,,0.02,,2013-07-11 03:42:00,
2013-07-10 22:53:00,77.0,-99.9,-100.00,NNE,20,6.0,8.0,-999,0.00,,,0.02,,2013-07-11 03:53:00,
2013-07-10 23:12:00,76.0,-99.9,-100.00,NNE,12,8.0,9.0,-999,0.00,,,0.02,,2013-07-11 04:12:00,
2013-07-10 23:22:00,76.0,-99.9,-100.00,NNE,12,8.0,9.0,-999,0.00,,,0.02,,2013-07-11 04:22:00,
2013-07-10 23:43:00,75.0,-99.9,-100.00,NNE,12,6.0,8.0,-999,0.00,,,0.02,,2013-07-11 04:43:00,
2013-07-10 23:53:00,75.0,-99.9,-100.00,NNE,12,6.0,8.0,-999,0.00,,,0.02,,2013-07-11 04:53:00,